Time;durP1;ratioP1;P1;durP2;ratioP2;P2;SDS_P1;SDS_P2;PMS_P1;PMS_P2;Temp;Humidity;BMP_temperature;BMP_pressure;BME280_temperature;BME280_humidity;BME280_pressure;Samples;Min_cycle;Max_cycle;Signal;HPM_P1;HPM_P2
2021/12/31 00:00:37;;;;;;;15.10;13.40;;;;;;;7.33;95.55;97858.86;104473;1331;22625;-60
2021/12/31 00:03:10;;;;;;;13.10;11.80;;;;;;;7.33;95.07;97861.21;104477;1331;22418;-60
2021/12/31 00:05:38;;;;;;;14.00;12.70;;;;;;;7.33;94.94;97867.64;104488;1331;22583;-60
2021/12/31 00:08:06;;;;;;;12.40;11.20;;;;;;;7.34;95.33;97865.10;104513;1329;22396;-62
2021/12/31 00:10:35;;;;;;;12.10;10.90;;;;;;;7.40;96.30;97872.41;104526;1324;22557;-60
2021/12/31 00:13:03;;;;;;;12.50;11.20;;;;;;;7.46;95.55;97877.94;104513;1331;22414;-57
2021/12/31 00:15:32;;;;;;;13.40;12.00;;;;;;;7.45;95.47;97876.66;104495;1331;23132;-59
2021/12/31 00:18:00;;;;;;;11.90;10.80;;;;;;;7.45;95.07;97875.70;104532;1331;22527;-59
2021/12/31 00:20:28;;;;;;;13.50;12.20;;;;;;;7.43;95.57;97875.81;104523;1329;22536;-57
2021/12/31 00:25:28;;;;;;;12.60;11.40;;;;;;;7.42;95.44;97878.36;104531;1319;22553;-59
2021/12/31 00:27:56;;;;;;;13.50;12.20;;;;;;;7.44;95.51;97872.17;104489;1331;22561;-58
2021/12/31 00:30:24;;;;;;;11.90;10.70;;;;;;;7.42;95.78;97876.42;104380;1319;138242;-57
2021/12/31 00:32:52;;;;;;;12.20;10.90;;;;;;;7.41;95.93;97880.35;104517;1331;22393;-60
2021/12/31 00:35:21;;;;;;;11.60;10.50;;;;;;;7.42;95.74;97880.13;104476;1331;22858;-58
2021/12/31 00:37:49;;;;;;;12.20;11.10;;;;;;;7.43;95.75;97888.91;104510;1331;22466;-60
2021/12/31 00:40:18;;;;;;;12.80;11.60;;;;;;;7.44;95.69;97886.01;104597;1318;22658;-59
2021/12/31 00:42:47;;;;;;;12.70;11.40;;;;;;;7.44;96.14;97889.02;104484;1330;22679;-62
2021/12/31 00:45:20;;;;;;;12.20;11.10;;;;;;;7.46;96.06;97892.64;104538;1331;22504;-61
2021/12/31 00:47:48;;;;;;;12.40;11.20;;;;;;;7.46;95.75;97895.75;104536;1331;22543;-58
2021/12/31 00:50:17;;;;;;;13.20;11.90;;;;;;;7.48;95.67;97900.40;104512;1319;22456;-59
2021/12/31 00:52:45;;;;;;;12.90;11.60;;;;;;;7.48;95.61;97899.23;104523;1326;23309;-58
2021/12/31 00:55:14;;;;;;;13.70;12.40;;;;;;;7.50;95.92;97895.73;104506;1331;22444;-59
2021/12/31 00:57:42;;;;;;;14.90;13.60;;;;;;;7.53;96.00;97898.61;104506;1319;22503;-59
2021/12/31 01:00:13;;;;;;;12.70;11.60;;;;;;;7.55;95.94;97898.96;104498;1329;23277;-59
2021/12/31 01:02:44;;;;;;;13.60;12.30;;;;;;;7.55;95.81;97898.80;104421;1331;138141;-59
2021/12/31 01:05:15;;;;;;;14.20;12.90;;;;;;;7.55;96.04;97901.17;104522;1330;23254;-59
2021/12/31 01:07:47;;;;;;;14.60;13.20;;;;;;;7.55;96.12;97900.23;104463;1320;22487;-59
2021/12/31 01:10:36;;;;;;;13.70;12.50;;;;;;;7.57;96.01;97902.92;104410;1331;22504;-59
2021/12/31 01:13:19;;;;;;;14.30;13.00;;;;;;;7.57;95.85;97902.44;104605;1319;22447;-60
2021/12/31 01:15:57;;;;;;;16.80;15.30;;;;;;;7.57;96.08;97904.75;104513;1319;22519;-60
2021/12/31 01:21:17;;;;;;;15.90;14.30;;;;;;;7.56;96.30;97905.50;104488;1329;22568;-58
2021/12/31 01:23:45;;;;;;;17.20;15.70;;;;;;;7.58;95.97;97906.77;104492;1331;22552;-59
2021/12/31 01:26:13;;;;;;;18.00;16.30;;;;;;;7.60;96.01;97907.09;104491;1330;22570;-60
2021/12/31 01:28:43;;;;;;;18.60;16.80;;;;;;;7.61;96.18;97907.71;104477;1331;22475;-60
2021/12/31 01:31:11;;;;;;;18.00;16.30;;;;;;;7.62;95.74;97907.98;104371;1319;138724;-60
2021/12/31 01:33:40;;;;;;;18.30;16.60;;;;;;;7.62;95.62;97912.42;104489;1331;22432;-59
2021/12/31 01:36:09;;;;;;;19.00;17.10;;;;;;;7.63;96.00;97913.55;104516;1331;23189;-59
2021/12/31 01:38:37;;;;;;;18.20;16.60;;;;;;;7.63;95.91;97914.84;104518;1327;22462;-60
2021/12/31 01:41:06;;;;;;;19.50;17.60;;;;;;;7.62;96.36;97915.55;104493;1331;22428;-58
2021/12/31 01:43:35;;;;;;;20.20;18.10;;;;;;;7.62;96.23;97915.17;104508;1330;22546;-59
2021/12/31 01:46:11;;;;;;;21.30;19.40;;;;;;;7.63;96.12;97915.80;104543;1330;22420;-63
2021/12/31 01:51:24;;;;;;;20.50;18.60;;;;;;;7.59;96.10;97914.91;104497;1330;23056;-59
2021/12/31 01:53:52;;;;;;;19.50;17.80;;;;;;;7.57;96.25;97922.23;104547;1331;22500;-60
2021/12/31 01:56:22;;;;;;;18.80;17.10;;;;;;;7.56;96.36;97919.77;104519;1331;22581;-60
2021/12/31 01:58:54;;;;;;;18.60;16.90;;;;;;;7.58;95.85;97926.08;104524;1319;22506;-58
2021/12/31 02:01:23;;;;;;;19.00;17.30;;;;;;;7.57;96.28;97924.73;104416;1329;138024;-59
2021/12/31 02:03:52;;;;;;;19.20;17.40;;;;;;;7.60;96.27;97926.22;104505;1331;22654;-58
2021/12/31 02:06:20;;;;;;;18.80;17.20;;;;;;;7.62;96.47;97928.80;104506;1329;22505;-58
2021/12/31 02:08:48;;;;;;;18.40;16.70;;;;;;;7.64;96.27;97920.84;104516;1330;22589;-59
2021/12/31 02:11:16;;;;;;;18.80;17.20;;;;;;;7.66;96.33;97920.23;104554;1319;23137;-59
2021/12/31 02:13:45;;;;;;;20.80;18.80;;;;;;;7.67;96.07;97921.19;104504;1330;23104;-59
2021/12/31 02:16:13;;;;;;;20.30;18.50;;;;;;;7.65;96.03;97923.95;104523;1329;22520;-59
2021/12/31 02:18:43;;;;;;;20.80;18.60;;;;;;;7.62;96.24;97922.15;104514;1330;22541;-60
2021/12/31 02:21:12;;;;;;;21.30;19.30;;;;;;;7.61;95.97;97918.97;104503;1331;22669;-59
2021/12/31 02:23:46;;;;;;;20.30;18.30;;;;;;;7.62;96.19;97915.27;104513;1330;23011;-59
2021/12/31 02:26:14;;;;;;;22.10;20.20;;;;;;;7.63;96.08;97914.84;104127;1330;492037;-60
2021/12/31 02:28:42;;;;;;;21.00;19.00;;;;;;;7.62;96.00;97917.37;104501;1326;22628;-59
2021/12/31 02:31:10;;;;;;;21.20;19.00;;;;;;;7.63;96.10;97913.40;104533;1330;22567;-59
2021/12/31 02:33:39;;;;;;;23.80;21.50;;;;;;;7.64;96.33;97916.70;104389;1331;138973;-58
2021/12/31 02:36:08;;;;;;;24.10;21.90;;;;;;;7.65;96.12;97919.64;104487;1330;22472;-59
2021/12/31 02:38:36;;;;;;;26.70;24.10;;;;;;;7.65;96.22;97917.02;104485;1331;23602;-59
2021/12/31 02:41:05;;;;;;;23.40;21.30;;;;;;;7.63;96.27;97916.02;104520;1330;22498;-59
2021/12/31 02:43:33;;;;;;;24.00;21.70;;;;;;;7.61;96.58;97918.29;104489;1331;22384;-59
2021/12/31 02:46:02;;;;;;;25.20;23.10;;;;;;;7.61;96.35;97918.88;104482;1330;23069;-58
2021/12/31 02:48:30;;;;;;;23.10;21.10;;;;;;;7.62;96.33;97919.09;104492;1328;22470;-58
2021/12/31 02:51:01;;;;;;;24.00;21.80;;;;;;;7.63;96.07;97916.99;104541;1331;22554;-58
2021/12/31 02:53:38;;;;;;;24.80;22.50;;;;;;;7.63;96.34;97918.48;104546;1330;22611;-59
2021/12/31 02:56:10;;;;;;;24.30;22.20;;;;;;;7.65;96.38;97922.07;104518;1330;22295;-59
2021/12/31 02:58:40;;;;;;;24.20;22.00;;;;;;;7.66;96.18;97925.21;104526;1331;22515;-59
2021/12/31 03:01:08;;;;;;;23.40;21.30;;;;;;;7.66;96.34;97920.34;104550;1331;22552;-59
2021/12/31 03:03:37;;;;;;;23.70;21.50;;;;;;;7.69;96.01;97919.58;104435;1319;138225;-59
2021/12/31 03:06:07;;;;;;;22.70;20.60;;;;;;;7.71;95.97;97920.48;104503;1319;22588;-59
2021/12/31 03:08:41;;;;;;;22.40;20.50;;;;;;;7.72;96.22;97923.09;104518;1319;22482;-59
2021/12/31 03:11:10;;;;;;;22.90;20.90;;;;;;;7.73;96.21;97930.59;104517;1331;22488;-59
2021/12/31 03:13:39;;;;;;;22.70;20.70;;;;;;;7.72;96.67;97931.77;104524;1324;22582;-59
2021/12/31 03:16:09;;;;;;;21.50;19.50;;;;;;;7.72;96.60;97932.36;104471;1330;22500;-59
2021/12/31 03:18:39;;;;;;;21.00;19.00;;;;;;;7.73;96.84;97939.34;104498;1330;22580;-59
2021/12/31 03:21:12;;;;;;;21.60;19.60;;;;;;;7.74;96.61;97943.30;104504;1330;22641;-59
2021/12/31 03:23:40;;;;;;;21.70;19.70;;;;;;;7.74;96.57;97943.52;104514;1313;22634;-59
2021/12/31 03:26:09;;;;;;;21.70;19.70;;;;;;;7.73;96.75;97942.17;104534;1331;22618;-60
2021/12/31 03:28:36;;;;;;;19.40;17.70;;;;;;;7.75;96.60;97939.96;104504;1319;23131;-59
2021/12/31 03:31:06;;;;;;;19.00;17.30;;;;;;;7.75;96.75;97936.04;104447;1330;23109;-60
2021/12/31 03:33:34;;;;;;;19.10;17.50;;;;;;;7.77;96.78;97940.02;104424;1331;138023;-58
2021/12/31 03:36:02;;;;;;;18.90;17.10;;;;;;;7.77;96.43;97939.48;104498;1331;22574;-57
2021/12/31 03:38:30;;;;;;;17.00;15.40;;;;;;;7.77;96.62;97940.39;104487;1330;22697;-58
2021/12/31 03:40:58;;;;;;;16.70;15.30;;;;;;;7.78;96.35;97937.33;104459;1330;23413;-58
2021/12/31 03:43:26;;;;;;;15.60;14.30;;;;;;;7.79;96.67;97940.21;104502;1331;22518;-59
2021/12/31 03:45:54;;;;;;;17.20;15.70;;;;;;;7.81;96.33;97943.58;104478;1330;23239;-59
2021/12/31 03:48:23;;;;;;;14.50;13.20;;;;;;;7.81;96.42;97944.11;104477;1330;22955;-59
2021/12/31 03:50:52;;;;;;;15.40;14.00;;;;;;;7.81;96.43;97943.23;104541;1331;23107;-59
2021/12/31 03:53:20;;;;;;;15.90;14.60;;;;;;;7.83;96.27;97945.11;104505;1331;22414;-59
2021/12/31 03:55:48;;;;;;;16.50;14.90;;;;;;;7.83;96.57;97943.83;104504;1330;22482;-59
2021/12/31 03:58:16;;;;;;;14.60;13.40;;;;;;;7.84;96.26;97945.86;104518;1330;22528;-58
2021/12/31 04:00:46;;;;;;;14.50;13.20;;;;;;;7.84;96.55;97944.67;104486;1330;22632;-58
2021/12/31 04:03:14;;;;;;;15.10;13.80;;;;;;;7.85;96.49;97952.45;104377;1330;137933;-59
2021/12/31 04:05:42;;;;;;;13.70;12.40;;;;;;;7.85;96.48;97949.02;104488;1319;22507;-59
2021/12/31 04:08:10;;;;;;;14.70;13.50;;;;;;;7.87;96.59;97953.88;104519;1331;22417;-58
2021/12/31 04:10:39;;;;;;;14.10;12.90;;;;;;;7.89;96.45;97953.50;104498;1319;23551;-59
2021/12/31 04:13:07;;;;;;;14.20;12.80;;;;;;;7.88;97.02;97955.22;104533;1331;23110;-58
2021/12/31 04:15:35;;;;;;;14.00;12.80;;;;;;;7.89;96.93;97958.01;104508;1330;22579;-58
2021/12/31 04:18:03;;;;;;;14.90;13.60;;;;;;;7.88;96.76;97958.87;104441;1330;22538;-59
2021/12/31 04:20:44;;;;;;;11.70;10.60;;;;;;;7.87;96.95;97960.54;104506;1319;22621;-59
2021/12/31 04:23:32;;;;;;;12.60;11.40;;;;;;;7.86;96.99;97957.96;104533;1331;22434;-59
2021/12/31 04:26:00;;;;;;;13.30;12.00;;;;;;;7.86;96.77;97961.30;104502;1330;22639;-59
2021/12/31 04:28:29;;;;;;;12.30;11.20;;;;;;;7.87;96.98;97963.27;104477;1329;22502;-57
2021/12/31 04:30:57;;;;;;;12.00;10.90;;;;;;;7.90;96.92;97962.88;104518;1319;22577;-57
2021/12/31 04:33:26;;;;;;;11.30;9.90;;;;;;;7.89;96.83;97960.10;104407;1319;138032;-58
2021/12/31 04:35:54;;;;;;;12.70;11.60;;;;;;;7.90;96.99;97960.77;104475;1319;22307;-58
2021/12/31 04:38:22;;;;;;;15.20;13.70;;;;;;;7.91;96.95;97954.44;104517;1319;22484;-59
2021/12/31 04:40:50;;;;;;;18.60;16.80;;;;;;;7.91;96.98;97957.71;104461;1329;22424;-58
2021/12/31 04:43:18;;;;;;;15.40;13.90;;;;;;;7.93;97.23;97957.21;104459;1313;22611;-58
2021/12/31 04:45:47;;;;;;;22.40;20.10;;;;;;;7.93;97.02;97954.48;104475;1331;22581;-59
2021/12/31 04:48:15;;;;;;;22.50;20.40;;;;;;;7.94;96.95;97959.73;104456;1331;22557;-58
2021/12/31 04:50:43;;;;;;;21.30;19.30;;;;;;;7.95;97.04;97952.22;104517;1329;23093;-58
2021/12/31 04:53:12;;;;;;;20.10;18.30;;;;;;;7.96;96.68;97954.13;104529;1331;22498;-58
2021/12/31 04:55:40;;;;;;;19.10;17.40;;;;;;;7.96;96.75;97952.15;104477;1330;22722;-58
2021/12/31 04:58:09;;;;;;;17.30;15.80;;;;;;;7.97;96.99;97953.20;104490;1329;22506;-58
2021/12/31 05:00:37;;;;;;;13.80;12.50;;;;;;;7.99;97.03;97951.16;104506;1331;22375;-58
2021/12/31 05:03:07;;;;;;;14.10;12.80;;;;;;;7.97;97.38;97954.29;104494;1330;22261;-58
2021/12/31 05:05:36;;;;;;;15.80;14.30;;;;;;;8.00;96.71;97956.69;104522;1319;23230;-58
2021/12/31 05:08:05;;;;;;;16.10;14.50;;;;;;;8.01;97.06;97954.44;104495;1326;22489;-58
2021/12/31 05:10:34;;;;;;;15.70;14.30;;;;;;;8.00;97.15;97949.76;104479;1330;22470;-58
2021/12/31 05:13:04;;;;;;;17.30;15.70;;;;;;;8.00;96.99;97946.83;104496;1319;22483;-59
2021/12/31 05:15:38;;;;;;;17.00;15.50;;;;;;;8.01;97.22;97951.15;104494;1329;23026;-58
2021/12/31 05:18:06;;;;;;;17.80;16.20;;;;;;;8.03;97.31;97951.08;104472;1330;22898;-59
2021/12/31 05:20:35;;;;;;;17.50;16.00;;;;;;;8.05;96.85;97949.89;104453;1331;23217;-57
2021/12/31 05:23:03;;;;;;;17.00;15.40;;;;;;;8.07;96.94;97959.75;104512;1331;22809;-58
2021/12/31 05:25:32;;;;;;;17.30;15.80;;;;;;;8.07;97.28;97953.73;104393;1328;137908;-58
2021/12/31 05:28:00;;;;;;;19.00;17.20;;;;;;;8.09;97.19;97950.01;104510;1329;22986;-59
2021/12/31 05:30:29;;;;;;;18.00;16.20;;;;;;;8.09;97.55;97945.61;104474;1331;22289;-58
2021/12/31 05:32:57;;;;;;;16.30;14.90;;;;;;;8.11;97.30;97951.39;104512;1327;22480;-57
2021/12/31 05:35:26;;;;;;;17.50;16.00;;;;;;;8.11;97.13;97946.55;104485;1319;22513;-58
2021/12/31 05:37:54;;;;;;;16.00;14.60;;;;;;;8.10;97.58;97946.35;104470;1330;22508;-57
2021/12/31 05:40:22;;;;;;;17.20;15.60;;;;;;;8.11;97.28;97946.29;104498;1331;23052;-58
2021/12/31 05:42:50;;;;;;;16.30;14.60;;;;;;;8.11;97.18;97951.39;104496;1330;23144;-58
2021/12/31 05:45:20;;;;;;;17.90;16.20;;;;;;;8.11;97.44;97949.61;104475;1330;22500;-58
2021/12/31 05:47:56;;;;;;;16.30;14.70;;;;;;;8.10;97.58;97950.55;104479;1330;22582;-58
2021/12/31 05:50:29;;;;;;;17.10;15.50;;;;;;;8.10;97.40;97957.63;104493;1331;22565;-58
2021/12/31 05:52:59;;;;;;;17.80;16.20;;;;;;;8.13;97.17;97961.31;104504;1331;22326;-58
2021/12/31 05:55:28;;;;;;;18.60;16.70;;;;;;;8.13;97.49;97966.46;104487;1330;22507;-58
2021/12/31 05:57:57;;;;;;;18.60;16.90;;;;;;;8.13;97.60;97965.87;104542;1319;22423;-58
2021/12/31 06:00:26;;;;;;;16.70;15.10;;;;;;;8.14;97.88;97973.80;104490;1331;22559;-58
2021/12/31 06:02:55;;;;;;;18.80;17.00;;;;;;;8.14;97.45;97973.38;104511;1330;22502;-58
2021/12/31 06:05:26;;;;;;;20.60;18.70;;;;;;;8.14;98.07;97973.00;104552;1331;22533;-59
2021/12/31 06:07:57;;;;;;;20.20;18.30;;;;;;;8.14;97.49;97972.67;104485;1330;22566;-57
2021/12/31 06:10:26;;;;;;;21.60;19.60;;;;;;;8.14;97.77;97973.98;104499;1331;23311;-58
2021/12/31 06:12:58;;;;;;;18.00;16.30;;;;;;;8.14;97.75;97971.65;104647;1316;22570;-59
2021/12/31 06:15:28;;;;;;;20.30;18.50;;;;;;;8.14;97.86;97977.67;104494;1330;22503;-58
2021/12/31 06:17:57;;;;;;;24.90;22.30;;;;;;;8.15;97.78;97984.86;104515;1319;22484;-58
2021/12/31 06:20:28;;;;;;;21.40;19.20;;;;;;;8.15;98.06;97979.80;104499;1331;22539;-58
2021/12/31 06:22:58;;;;;;;23.40;21.30;;;;;;;8.15;97.67;97975.83;104506;1331;22693;-58
2021/12/31 06:25:27;;;;;;;20.80;18.80;;;;;;;8.15;97.47;97980.77;104480;1331;22439;-57
2021/12/31 06:27:55;;;;;;;21.20;19.00;;;;;;;8.14;97.78;97979.39;104502;1330;22397;-58
2021/12/31 06:30:23;;;;;;;21.20;19.10;;;;;;;8.14;97.51;97987.55;104506;1331;22655;-58
2021/12/31 06:32:51;;;;;;;18.70;16.90;;;;;;;8.12;98.08;97985.42;104494;1330;22591;-58
2021/12/31 06:35:19;;;;;;;19.20;17.50;;;;;;;8.11;97.66;97982.68;104453;1329;22610;-58
2021/12/31 06:37:52;;;;;;;18.60;16.80;;;;;;;8.11;97.55;97987.35;104560;1331;22492;-58
2021/12/31 06:40:23;;;;;;;20.20;18.20;;;;;;;8.12;97.85;97984.73;104501;1330;22314;-58
2021/12/31 06:42:51;;;;;;;19.90;18.00;;;;;;;8.13;97.93;97986.02;104494;1330;22577;-57
2021/12/31 06:45:19;;;;;;;19.00;17.20;;;;;;;8.13;97.32;97992.77;104511;1330;23226;-58
2021/12/31 06:47:47;;;;;;;23.10;20.60;;;;;;;8.12;97.64;97999.48;104509;1331;22641;-58
2021/12/31 06:50:15;;;;;;;24.60;22.30;;;;;;;8.13;98.10;97997.21;104524;1331;22663;-59
2021/12/31 06:52:43;;;;;;;23.80;21.50;;;;;;;8.14;97.80;97996.95;104530;1330;22855;-59
2021/12/31 06:55:12;;;;;;;23.10;20.90;;;;;;;8.13;97.55;97999.09;104496;1327;22479;-59
2021/12/31 06:57:40;;;;;;;28.50;25.90;;;;;;;8.13;98.23;97998.24;104488;1330;23053;-60
2021/12/31 07:00:09;;;;;;;34.80;31.50;;;;;;;8.13;97.57;97998.20;104511;1331;23612;-59
2021/12/31 07:02:37;;;;;;;27.20;24.50;;;;;;;8.14;97.70;97997.38;104506;1330;22658;-59
2021/12/31 07:05:06;;;;;;;29.40;26.60;;;;;;;8.16;97.66;97997.73;104490;1330;22907;-58
2021/12/31 07:07:35;;;;;;;25.20;21.80;;;;;;;8.16;97.71;97996.22;104517;1331;22482;-58
2021/12/31 07:10:05;;;;;;;27.00;24.10;;;;;;;8.16;98.13;97996.44;104511;1331;22506;-59
2021/12/31 07:12:34;;;;;;;23.70;21.30;;;;;;;8.16;97.88;97997.41;104480;1330;22552;-59
2021/12/31 07:15:02;;;;;;;20.00;18.00;;;;;;;8.14;97.98;98006.98;104510;1330;23020;-60
2021/12/31 07:17:30;;;;;;;27.70;24.70;;;;;;;8.14;97.94;98008.38;104528;1330;23102;-59
2021/12/31 07:19:58;;;;;;;22.30;20.10;;;;;;;8.15;97.83;98011.91;104479;1330;22570;-58
2021/12/31 07:22:26;;;;;;;25.50;22.90;;;;;;;8.17;97.88;98015.48;104500;1330;22661;-59
2021/12/31 07:24:54;;;;;;;19.90;18.00;;;;;;;8.17;97.74;98013.39;104557;1316;22544;-59
2021/12/31 07:27:22;;;;;;;19.10;17.10;;;;;;;8.17;98.06;98011.02;104492;1330;22524;-58
2021/12/31 07:29:50;;;;;;;18.90;17.20;;;;;;;8.16;98.04;98009.27;104524;1330;22694;-58
2021/12/31 07:32:18;;;;;;;20.50;18.60;;;;;;;8.18;97.93;98010.45;104490;1327;22748;-58
2021/12/31 07:34:46;;;;;;;22.90;18.30;;;;;;;8.19;98.18;98015.16;104392;1331;139209;-59
2021/12/31 07:37:14;;;;;;;16.10;14.70;;;;;;;8.18;98.27;98020.20;104498;1330;23049;-59
2021/12/31 07:39:47;;;;;;;17.60;15.90;;;;;;;8.19;98.30;98023.41;104506;1331;22490;-57
2021/12/31 07:42:15;;;;;;;16.50;14.90;;;;;;;8.20;98.38;98026.14;104623;1319;22561;-58
2021/12/31 07:44:44;;;;;;;17.40;15.70;;;;;;;8.21;98.55;98030.98;104467;1331;23208;-57
2021/12/31 07:47:13;;;;;;;17.30;15.80;;;;;;;8.23;98.26;98020.40;104490;1331;22567;-58
2021/12/31 07:49:41;;;;;;;15.10;13.60;;;;;;;8.25;98.15;98020.74;104518;1330;22461;-58
2021/12/31 07:52:09;;;;;;;19.90;18.00;;;;;;;8.26;98.02;98026.80;104493;1331;22539;-58
2021/12/31 07:54:37;;;;;;;17.80;16.30;;;;;;;8.26;98.27;98034.59;104488;1330;22473;-58
2021/12/31 07:57:06;;;;;;;23.40;21.30;;;;;;;8.24;98.14;98028.80;104487;1329;23095;-58
2021/12/31 07:59:33;;;;;;;25.00;22.50;;;;;;;8.23;98.59;98033.06;104479;1330;22338;-57
2021/12/31 08:02:02;;;;;;;32.40;29.20;;;;;;;8.25;98.87;98030.42;104491;1331;23111;-57
2021/12/31 08:04:33;;;;;;;32.20;29.00;;;;;;;8.26;98.48;98037.22;104557;1331;22636;-59
2021/12/31 08:07:02;;;;;;;25.90;23.50;;;;;;;8.28;98.37;98033.40;104502;1331;22363;-59
2021/12/31 08:09:30;;;;;;;23.10;20.90;;;;;;;8.27;98.83;98036.90;104553;1319;23048;-59
2021/12/31 08:11:58;;;;;;;27.90;25.30;;;;;;;8.26;98.40;98041.20;104537;1319;22482;-58
2021/12/31 08:14:26;;;;;;;24.50;22.30;;;;;;;8.26;98.64;98041.80;104490;1330;22527;-59
2021/12/31 08:16:55;;;;;;;17.90;16.10;;;;;;;8.27;98.75;98046.02;104511;1319;22437;-59
2021/12/31 08:19:23;;;;;;;17.40;15.80;;;;;;;8.28;98.80;98043.10;104492;1331;22554;-59
2021/12/31 08:21:51;;;;;;;17.10;15.30;;;;;;;8.28;98.43;98041.81;104456;1330;22488;-58
2021/12/31 08:24:19;;;;;;;18.00;16.30;;;;;;;8.30;98.63;98049.23;104535;1331;22471;-59
2021/12/31 08:26:47;;;;;;;17.20;15.70;;;;;;;8.31;98.44;98048.45;104525;1331;22699;-59
2021/12/31 08:29:15;;;;;;;18.60;16.60;;;;;;;8.32;98.49;98054.40;104432;1331;22575;-58
2021/12/31 08:31:43;;;;;;;19.40;17.70;;;;;;;8.32;98.62;98049.58;104514;1331;22537;-58
2021/12/31 08:34:12;;;;;;;21.10;19.10;;;;;;;8.32;98.55;98050.49;104456;1331;22453;-58
2021/12/31 08:36:39;;;;;;;23.30;21.00;;;;;;;8.35;98.27;98054.02;104465;1331;22459;-59
2021/12/31 08:39:09;;;;;;;24.90;22.30;;;;;;;8.38;98.70;98055.54;104477;1331;22550;-59
2021/12/31 08:41:39;;;;;;;24.60;22.10;;;;;;;8.39;98.56;98059.45;104480;1331;22459;-58
2021/12/31 08:44:16;;;;;;;25.60;23.00;;;;;;;8.39;99.02;98057.56;104504;1331;22510;-59
2021/12/31 08:46:44;;;;;;;20.80;18.50;;;;;;;8.41;98.71;98056.95;104519;1330;23229;-58
2021/12/31 08:49:13;;;;;;;21.00;19.00;;;;;;;8.43;98.66;98060.79;104515;1330;22707;-59
2021/12/31 08:51:41;;;;;;;25.00;22.70;;;;;;;8.45;98.26;98055.58;104277;1331;22408;-58
2021/12/31 08:54:09;;;;;;;17.60;15.80;;;;;;;8.48;98.58;98056.30;104476;1319;23264;-59
2021/12/31 08:56:38;;;;;;;19.50;17.60;;;;;;;8.51;98.64;98059.68;104515;1331;22588;-58
2021/12/31 08:59:06;;;;;;;18.10;16.40;;;;;;;8.53;98.68;98058.80;104512;1331;22639;-59
2021/12/31 09:01:35;;;;;;;20.80;18.70;;;;;;;8.57;98.61;98064.94;104483;1329;22315;-58
2021/12/31 09:04:04;;;;;;;21.00;18.90;;;;;;;8.58;98.59;98062.95;104473;1330;23121;-58
2021/12/31 09:06:32;;;;;;;25.30;23.10;;;;;;;8.59;99.06;98066.81;104504;1331;22371;-59
2021/12/31 09:09:00;;;;;;;23.10;20.70;;;;;;;8.61;98.33;98066.90;104505;1330;23258;-59
2021/12/31 09:11:28;;;;;;;20.20;18.20;;;;;;;8.62;98.84;98065.00;104500;1320;22350;-59
2021/12/31 09:13:57;;;;;;;25.40;23.00;;;;;;;8.65;98.86;98056.93;104495;1319;22563;-59
2021/12/31 09:16:25;;;;;;;44.60;40.20;;;;;;;8.68;98.51;98057.66;104499;1331;22566;-58
2021/12/31 09:18:53;;;;;;;31.90;28.70;;;;;;;8.70;98.68;98062.63;104493;1331;22656;-58
2021/12/31 09:21:22;;;;;;;29.40;26.80;;;;;;;8.71;98.22;98057.14;104499;1330;22504;-58
2021/12/31 09:23:50;;;;;;;23.40;21.10;;;;;;;8.73;98.58;98053.30;104532;1331;23111;-59
2021/12/31 09:26:18;;;;;;;21.30;19.20;;;;;;;8.72;98.59;98058.10;104531;1330;22568;-60
2021/12/31 09:28:46;;;;;;;20.80;18.90;;;;;;;8.73;98.49;98061.14;104500;1331;22499;-59
2021/12/31 09:31:14;;;;;;;19.70;17.70;;;;;;;8.74;98.33;98064.27;104490;1321;22435;-59
2021/12/31 09:33:43;;;;;;;17.70;15.90;;;;;;;8.74;98.49;98066.41;104480;1331;22991;-57
2021/12/31 09:36:11;;;;;;;19.00;17.10;;;;;;;8.74;98.45;98070.02;104471;1330;22664;-58
2021/12/31 09:38:39;;;;;;;19.20;17.40;;;;;;;8.73;98.63;98071.94;104512;1331;22495;-58
2021/12/31 09:41:07;;;;;;;18.40;16.60;;;;;;;8.76;98.68;98066.45;104455;1331;22531;-59
2021/12/31 09:43:38;;;;;;;18.10;16.40;;;;;;;8.79;98.82;98068.83;104535;1319;22464;-59
2021/12/31 09:46:06;;;;;;;16.20;14.50;;;;;;;8.81;98.28;98060.27;104466;1331;22515;-59
2021/12/31 09:48:35;;;;;;;16.10;14.50;;;;;;;8.81;98.61;98053.82;104534;1330;22351;-59
2021/12/31 09:51:06;;;;;;;17.30;15.70;;;;;;;8.85;98.54;98058.34;104457;1330;22567;-59
2021/12/31 09:53:35;;;;;;;17.00;15.30;;;;;;;8.87;98.42;98057.26;104499;1330;22943;-59
2021/12/31 09:56:06;;;;;;;19.30;17.30;;;;;;;8.89;98.82;98060.36;104522;1331;22625;-59
2021/12/31 09:58:35;;;;;;;18.70;17.00;;;;;;;8.91;98.19;98055.34;104496;1330;22544;-59
2021/12/31 10:01:07;;;;;;;18.90;17.10;;;;;;;8.92;98.50;98057.36;104541;1319;22338;-58
2021/12/31 10:03:37;;;;;;;19.70;17.70;;;;;;;8.94;98.15;98064.23;104508;1319;22383;-58
2021/12/31 10:06:05;;;;;;;22.60;19.00;;;;;;;8.97;98.22;98065.12;104471;1330;23127;-59
2021/12/31 10:08:45;;;;;;;22.20;18.00;;;;;;;9.00;98.63;98064.43;104530;1331;22573;-59
2021/12/31 10:11:13;;;;;;;21.40;19.10;;;;;;;9.04;98.15;98066.01;104483;1330;22605;-59
2021/12/31 10:13:43;;;;;;;18.60;16.70;;;;;;;9.06;98.31;98057.07;104536;1330;22593;-59
2021/12/31 10:16:25;;;;;;;20.60;16.80;;;;;;;9.09;98.07;98058.17;104492;1330;22571;-59
2021/12/31 10:19:13;;;;;;;16.20;14.50;;;;;;;9.12;98.19;98054.98;104512;1330;22330;-59
2021/12/31 10:21:42;;;;;;;16.70;15.00;;;;;;;9.16;98.34;98056.75;104505;1331;22689;-59
2021/12/31 10:24:34;;;;;;;16.90;15.10;;;;;;;9.18;98.39;98045.92;104517;1331;22393;-59
2021/12/31 10:27:09;;;;;;;18.30;16.30;;;;;;;9.23;98.42;98044.09;104491;1331;23035;-59
2021/12/31 10:29:54;;;;;;;16.20;14.50;;;;;;;9.25;98.07;98045.89;104461;1330;22581;-59
2021/12/31 10:32:25;;;;;;;15.30;13.80;;;;;;;9.26;98.03;98039.75;104539;1330;22515;-60
2021/12/31 10:35:07;;;;;;;16.20;14.70;;;;;;;9.28;98.08;98037.10;104531;1331;22520;-59
2021/12/31 10:37:58;;;;;;;16.00;14.40;;;;;;;9.30;97.85;98038.38;104490;1319;22387;-60
2021/12/31 10:40:30;;;;;;;15.60;13.90;;;;;;;9.34;97.99;98034.13;104482;1330;22544;-59
2021/12/31 10:43:18;;;;;;;16.10;14.40;;;;;;;9.40;97.93;98033.02;104500;1331;23075;-59
2021/12/31 10:46:10;;;;;;;15.80;14.30;;;;;;;9.50;98.31;98028.45;104521;1331;22611;-59
2021/12/31 10:48:47;;;;;;;16.00;14.10;;;;;;;9.64;98.28;98028.00;104490;1330;22595;-59
2021/12/31 10:51:34;;;;;;;17.10;13.50;;;;;;;9.73;97.89;98027.40;104480;1331;22525;-59
2021/12/31 10:54:46;;;;;;;16.50;14.10;;;;;;;9.79;97.51;98026.77;104466;1327;22999;-60
2021/12/31 10:57:38;;;;;;;15.50;13.90;;;;;;;9.86;97.43;98016.18;104501;1331;22400;-58
2021/12/31 11:00:09;;;;;;;14.40;12.70;;;;;;;9.91;96.87;98011.60;104521;1329;22524;-59
2021/12/31 11:02:38;;;;;;;17.70;14.20;;;;;;;9.97;97.37;98018.82;104385;1329;137991;-59
2021/12/31 11:05:07;;;;;;;17.70;12.70;;;;;;;10.05;97.16;98015.33;104527;1330;22446;-58
2021/12/31 11:07:37;;;;;;;15.30;12.50;;;;;;;10.12;96.73;98018.02;104519;1331;22875;-58
2021/12/31 11:10:28;;;;;;;14.50;11.80;;;;;;;10.20;96.79;98017.25;104512;1330;22567;-58
2021/12/31 11:12:56;;;;;;;12.70;11.50;;;;;;;10.26;96.74;98015.98;104475;1331;22485;-58
2021/12/31 11:15:24;;;;;;;16.50;11.90;;;;;;;10.30;96.83;98019.88;104594;1319;22489;-59
2021/12/31 11:17:52;;;;;;;15.40;12.70;;;;;;;10.32;96.55;98018.33;104540;1319;22514;-58
2021/12/31 11:20:23;;;;;;;16.10;14.40;;;;;;;10.33;96.71;98016.77;104482;1331;22962;-59
2021/12/31 11:22:52;;;;;;;15.50;13.90;;;;;;;10.33;96.24;98018.86;104496;1330;23295;-57
2021/12/31 11:26:07;;;;;;;18.00;14.90;;;;;;;10.34;96.22;98017.82;104507;1330;22500;-59
2021/12/31 11:28:42;;;;;;;16.10;13.40;;;;;;;10.36;95.99;98018.55;104458;1331;23114;-58
2021/12/31 11:31:18;;;;;;;16.50;13.60;;;;;;;10.37;96.28;98017.98;104494;1330;23191;-58
2021/12/31 11:34:11;;;;;;;14.90;13.40;;;;;;;10.39;95.46;98021.52;104501;1319;22332;-59
2021/12/31 11:36:42;;;;;;;14.40;12.90;;;;;;;10.41;95.45;98019.91;104518;1331;23299;-59
2021/12/31 11:39:30;;;;;;;18.80;15.70;;;;;;;10.40;95.46;98012.87;104513;1331;22585;-59